Time;durP1;ratioP1;P1;durP2;ratioP2;P2;SDS_P1;SDS_P2;PMS_P1;PMS_P2;Temp;Humidity;BMP_temperature;BMP_pressure;BME280_temperature;BME280_humidity;BME280_pressure;Samples;Min_cycle;Max_cycle;Signal;HPM_P1;HPM_P2
2022/01/03 00:01:36;;;;;;;15.70;11.40;;;;;;;8.63;71.63;97382.77;108995;1280;23204;-63
2022/01/03 00:04:08;;;;;;;14.30;12.20;;;;;;;8.62;71.52;97378.28;108937;1281;22452;-62
2022/01/03 00:06:38;;;;;;;14.60;11.90;;;;;;;8.61;71.40;97376.05;108770;1281;137651;-63
2022/01/03 00:09:08;;;;;;;13.70;12.30;;;;;;;8.60;71.75;97372.41;108934;1281;22639;-63
2022/01/03 00:11:36;;;;;;;14.30;12.80;;;;;;;8.60;71.80;97365.70;108940;1281;22530;-63
2022/01/03 00:14:04;;;;;;;17.00;12.90;;;;;;;8.60;71.58;97369.88;108912;1281;22532;-63
2022/01/03 00:16:33;;;;;;;13.70;12.10;;;;;;;8.60;71.88;97376.55;108726;1282;22371;-63
2022/01/03 00:19:01;;;;;;;17.90;13.90;;;;;;;8.57;71.83;97387.10;108919;1281;22502;-63
2022/01/03 00:21:44;;;;;;;13.20;11.60;;;;;;;8.55;71.99;97371.77;108913;1281;23266;-63
2022/01/03 00:24:20;;;;;;;12.70;11.30;;;;;;;8.53;71.83;97364.07;109466;1276;22416;-58
2022/01/03 00:27:00;;;;;;;14.80;12.60;;;;;;;8.56;71.91;97355.64;109595;1275;22544;-63
2022/01/03 00:29:57;;;;;;;15.20;13.00;;;;;;;8.54;71.82;97354.11;109569;1275;22558;-63
2022/01/03 00:32:27;;;;;;;;;;;;;;;8.53;72.27;97350.21;109616;1275;22455;-62
2022/01/03 00:34:55;;;;;;;16.90;12.70;;;;;;;8.50;71.91;97356.45;109581;1274;22747;-62
2022/01/03 00:37:26;;;;;;;18.30;13.50;;;;;;;8.47;72.23;97356.35;109593;1275;22428;-63
2022/01/03 00:39:56;;;;;;;16.00;12.30;;;;;;;8.47;72.37;97361.35;109470;1275;138253;-63
2022/01/03 00:42:25;;;;;;;15.10;12.70;;;;;;;8.48;71.87;97369.80;109583;1275;22445;-63
2022/01/03 00:44:53;;;;;;;16.80;13.60;;;;;;;8.49;72.37;97377.58;109608;1275;22443;-62
2022/01/03 00:47:21;;;;;;;17.50;14.20;;;;;;;8.49;72.46;97351.73;109596;1275;22611;-62
2022/01/03 00:49:53;;;;;;;20.00;13.70;;;;;;;8.46;72.58;97346.69;109469;1276;22656;-62
2022/01/03 00:52:26;;;;;;;17.00;13.40;;;;;;;8.44;72.37;97352.91;109585;1276;23059;-62
2022/01/03 00:54:54;;;;;;;14.10;12.50;;;;;;;8.42;72.31;97342.23;109596;1275;22536;-62
2022/01/03 00:57:54;;;;;;;17.10;13.00;;;;;;;8.43;72.46;97341.02;109576;1275;23166;-62
2022/01/03 01:00:22;;;;;;;13.00;11.50;;;;;;;8.43;72.46;97334.52;109587;1275;22557;-62
2022/01/03 01:03:15;;;;;;;12.50;11.20;;;;;;;8.43;72.52;97325.23;109476;1275;23136;-62
2022/01/03 01:05:53;;;;;;;13.10;11.30;;;;;;;8.41;72.63;97331.38;109474;1276;22491;-63
2022/01/03 01:08:23;;;;;;;11.80;10.60;;;;;;;8.40;72.64;97336.51;109575;1275;22429;-63
2022/01/03 01:10:55;;;;;;;13.20;10.30;;;;;;;8.40;72.63;97335.20;109553;1275;22494;-62
2022/01/03 01:13:24;;;;;;;11.90;10.30;;;;;;;8.40;72.27;97327.63;109517;1276;23082;-63
2022/01/03 01:15:53;;;;;;;13.20;10.90;;;;;;;8.42;72.45;97316.51;109584;1276;22408;-63
2022/01/03 01:18:24;;;;;;;12.40;10.70;;;;;;;8.40;72.84;97328.48;109584;1275;23222;-63
2022/01/03 01:20:54;;;;;;;12.00;10.30;;;;;;;8.39;72.79;97336.14;109576;1275;22487;-62
2022/01/03 01:23:25;;;;;;;13.60;10.80;;;;;;;8.37;72.81;97334.70;109481;1275;22544;-62
2022/01/03 01:28:22;;;;;;;10.50;9.40;;;;;;;8.39;72.57;97330.83;109587;1275;22528;-63
2022/01/03 01:30:54;;;;;;;11.80;10.60;;;;;;;8.39;72.52;97331.25;109452;1276;22451;-63
2022/01/03 01:33:26;;;;;;;12.60;10.30;;;;;;;8.38;72.88;97314.20;109482;1276;22430;-63
2022/01/03 01:36:14;;;;;;;11.30;10.10;;;;;;;8.36;72.53;97307.02;109583;1275;22394;-62
2022/01/03 01:38:49;;;;;;;11.40;9.40;;;;;;;8.34;72.34;97313.29;109587;1275;23248;-62
2022/01/03 01:41:19;;;;;;;9.80;8.80;;;;;;;8.34;72.47;97303.40;109584;1275;22558;-62
2022/01/03 01:43:51;;;;;;;10.00;9.00;;;;;;;8.37;72.66;97302.88;109479;1277;22271;-62
2022/01/03 01:46:21;;;;;;;10.60;9.50;;;;;;;8.37;72.65;97300.30;109569;1275;22446;-62
2022/01/03 01:48:54;;;;;;;11.00;9.30;;;;;;;8.36;73.15;97299.23;109488;1276;22531;-61
2022/01/03 01:51:25;;;;;;;10.70;9.60;;;;;;;8.35;72.52;97296.31;109496;1276;23092;-62
2022/01/03 01:53:56;;;;;;;10.70;9.60;;;;;;;8.33;73.10;97297.14;109479;1277;22440;-62
2022/01/03 01:56:39;;;;;;;9.90;8.50;;;;;;;8.33;72.63;97301.09;109470;1277;22379;-62
2022/01/03 01:59:13;;;;;;;11.10;9.10;;;;;;;8.35;72.80;97296.09;109468;1277;22507;-63
2022/01/03 02:01:46;;;;;;;12.70;9.70;;;;;;;8.36;72.88;97296.99;109489;1276;22386;-63
2022/01/03 02:04:31;;;;;;;11.00;9.80;;;;;;;8.36;72.94;97291.35;109495;1275;22418;-63
2022/01/03 02:07:24;;;;;;;11.00;9.80;;;;;;;8.34;72.92;97296.33;109494;1276;22444;-63
2022/01/03 02:10:02;;;;;;;11.90;9.40;;;;;;;8.32;73.10;97293.09;109486;1275;22494;-63
2022/01/03 02:12:39;;;;;;;12.00;9.20;;;;;;;8.33;72.75;97289.41;109370;1277;22893;-63
2022/01/03 02:15:14;;;;;;;15.40;9.70;;;;;;;8.36;73.12;97289.30;109469;1276;22515;-63
2022/01/03 02:17:46;;;;;;;11.50;8.60;;;;;;;8.35;73.17;97287.27;109359;1276;22434;-63
2022/01/03 02:20:21;;;;;;;9.80;8.70;;;;;;;8.34;72.78;97276.46;109375;1275;22521;-63
2022/01/03 02:22:50;;;;;;;10.00;9.00;;;;;;;8.32;73.06;97272.42;109576;1277;22431;-61
2022/01/03 02:25:22;;;;;;;9.50;7.70;;;;;;;8.30;72.82;97270.80;109396;1276;22608;-61
2022/01/03 02:27:52;;;;;;;12.50;8.90;;;;;;;8.29;72.95;97271.61;109162;1275;401067;-62
2022/01/03 02:30:24;;;;;;;10.00;8.50;;;;;;;8.31;72.64;97262.94;109475;1276;23208;-62
2022/01/03 02:32:53;;;;;;;11.60;8.60;;;;;;;8.30;73.14;97250.81;109489;1275;23170;-62
2022/01/03 02:35:22;;;;;;;12.20;8.10;;;;;;;8.30;73.17;97247.39;109497;1275;22439;-62
2022/01/03 02:37:52;;;;;;;9.90;8.50;;;;;;;8.28;73.12;97240.72;109581;1275;22445;-63
2022/01/03 02:40:22;;;;;;;12.00;9.20;;;;;;;8.26;72.99;97227.78;109500;1276;22700;-62
2022/01/03 02:42:52;;;;;;;11.50;8.60;;;;;;;8.27;72.97;97219.17;109513;1276;22458;-62
2022/01/03 02:45:23;;;;;;;10.10;8.50;;;;;;;8.27;72.92;97216.27;109498;1275;22533;-63
2022/01/03 02:47:54;;;;;;;10.30;8.60;;;;;;;8.26;73.03;97217.31;109585;1276;22527;-63
2022/01/03 02:50:24;;;;;;;11.30;8.30;;;;;;;8.23;73.16;97226.64;109494;1276;23241;-62
2022/01/03 02:52:54;;;;;;;9.50;8.50;;;;;;;8.19;73.22;97224.83;109475;1277;22301;-63
2022/01/03 02:55:23;;;;;;;11.40;8.50;;;;;;;8.15;73.41;97226.76;109567;1275;22477;-63
2022/01/03 02:57:55;;;;;;;13.50;8.20;;;;;;;8.13;72.93;97230.14;109567;1275;22475;-63
2022/01/03 03:00:28;;;;;;;10.80;8.40;;;;;;;8.11;73.27;97233.74;109497;1277;22446;-64
2022/01/03 03:02:57;;;;;;;10.40;8.40;;;;;;;8.10;73.39;97236.14;109574;1276;22782;-62
2022/01/03 03:05:26;;;;;;;11.10;9.10;;;;;;;8.06;73.34;97231.66;109609;1274;22548;-62
2022/01/03 03:07:54;;;;;;;10.40;8.80;;;;;;;8.05;73.13;97231.35;109478;1276;22450;-63
2022/01/03 03:10:25;;;;;;;12.60;8.30;;;;;;;8.05;73.62;97230.77;109354;1276;22465;-62
2022/01/03 03:12:55;;;;;;;10.20;7.50;;;;;;;8.07;73.37;97228.11;109470;1276;23116;-62
2022/01/03 03:15:24;;;;;;;10.90;8.80;;;;;;;8.09;73.57;97223.55;109442;1276;22592;-62
2022/01/03 03:17:52;;;;;;;10.10;8.00;;;;;;;8.09;73.62;97212.98;109566;1277;22397;-62
2022/01/03 03:20:24;;;;;;;11.20;8.40;;;;;;;8.08;73.92;97210.89;109568;1275;23419;-62
2022/01/03 03:22:54;;;;;;;10.00;8.70;;;;;;;8.08;73.53;97205.42;109478;1277;22571;-63
2022/01/03 03:25:27;;;;;;;12.00;7.50;;;;;;;8.09;73.90;97208.41;109486;1276;22433;-63
2022/01/03 03:27:58;;;;;;;10.60;7.90;;;;;;;8.13;73.47;97203.30;109570;1275;22462;-63
2022/01/03 03:30:33;;;;;;;10.00;8.40;;;;;;;8.15;73.48;97206.61;109573;1275;23534;-61
2022/01/03 03:33:08;;;;;;;9.90;8.10;;;;;;;8.15;73.77;97210.34;109477;1276;22479;-62
2022/01/03 03:35:38;;;;;;;10.10;7.80;;;;;;;8.14;73.78;97201.33;109489;1276;22544;-62
2022/01/03 03:38:06;;;;;;;10.90;7.80;;;;;;;8.15;73.66;97201.46;109572;1275;23002;-61
2022/01/03 03:40:36;;;;;;;9.90;7.30;;;;;;;8.17;73.56;97206.73;109555;1276;22692;-62
2022/01/03 03:43:04;;;;;;;9.80;7.60;;;;;;;8.20;73.81;97207.02;109464;1276;22545;-64
2022/01/03 03:45:33;;;;;;;9.20;7.20;;;;;;;8.24;73.49;97200.35;109470;1276;22261;-64
2022/01/03 03:48:06;;;;;;;10.40;7.60;;;;;;;8.24;73.64;97199.63;109472;1276;22429;-64
2022/01/03 03:50:34;;;;;;;13.10;7.80;;;;;;;8.25;73.43;97192.84;109489;1277;22507;-62
2022/01/03 03:53:03;;;;;;;9.70;7.00;;;;;;;8.25;73.59;97186.48;109455;1277;22320;-62
2022/01/03 03:55:34;;;;;;;11.00;8.00;;;;;;;8.26;73.29;97180.10;109468;1276;22429;-62
2022/01/03 03:58:03;;;;;;;9.50;6.50;;;;;;;8.28;73.62;97174.16;109469;1276;22648;-62
2022/01/03 04:00:33;;;;;;;9.30;7.50;;;;;;;8.31;73.05;97187.13;109465;1277;22583;-62
2022/01/03 04:03:02;;;;;;;8.20;6.90;;;;;;;8.34;72.97;97185.52;109498;1276;22432;-62
2022/01/03 04:05:31;;;;;;;7.80;6.60;;;;;;;8.36;73.25;97184.88;109556;1275;23216;-62
2022/01/03 04:08:00;;;;;;;8.40;6.50;;;;;;;8.37;73.21;97174.55;109514;1276;22469;-62
2022/01/03 04:10:28;;;;;;;9.50;6.90;;;;;;;8.38;73.03;97173.88;109591;1275;22490;-63
2022/01/03 04:12:57;;;;;;;9.50;6.30;;;;;;;8.37;72.86;97180.61;109585;1276;23201;-63
2022/01/03 04:15:25;;;;;;;11.30;7.90;;;;;;;8.39;72.78;97179.46;109591;1276;23293;-63
2022/01/03 04:17:54;;;;;;;10.40;7.30;;;;;;;8.42;72.89;97185.43;109573;1275;22450;-62
2022/01/03 04:20:22;;;;;;;9.40;7.00;;;;;;;8.45;73.08;97171.77;109574;1275;22395;-62
2022/01/03 04:22:50;;;;;;;12.00;6.80;;;;;;;8.47;72.70;97167.50;109578;1277;22808;-63
2022/01/03 04:25:18;;;;;;;9.50;7.30;;;;;;;8.47;72.86;97163.15;109581;1275;22475;-63
2022/01/03 04:27:48;;;;;;;11.60;6.80;;;;;;;8.46;72.54;97167.56;109603;1276;22362;-63
2022/01/03 04:30:16;;;;;;;10.10;7.80;;;;;;;8.49;72.62;97173.52;109487;1276;22485;-63
2022/01/03 04:32:44;;;;;;;9.70;8.00;;;;;;;8.53;72.45;97159.41;109577;1275;22637;-63
2022/01/03 04:35:13;;;;;;;10.20;7.50;;;;;;;8.55;72.19;97155.98;109584;1275;23255;-63
2022/01/03 04:37:41;;;;;;;9.00;7.30;;;;;;;8.56;72.30;97153.86;109480;1276;23232;-63
2022/01/03 04:40:10;;;;;;;9.80;7.00;;;;;;;8.55;71.90;97143.71;109576;1275;22280;-63
2022/01/03 04:42:38;;;;;;;9.90;7.60;;;;;;;8.56;72.54;97149.73;109581;1275;22702;-63
2022/01/03 04:45:07;;;;;;;8.70;6.90;;;;;;;8.55;72.21;97147.16;109489;1276;22877;-63
2022/01/03 04:47:35;;;;;;;7.50;6.70;;;;;;;8.56;72.21;97146.55;109572;1277;23233;-63
2022/01/03 04:50:04;;;;;;;8.00;6.30;;;;;;;8.59;72.55;97151.98;109477;1277;23719;-63
2022/01/03 04:52:33;;;;;;;9.00;7.60;;;;;;;8.59;72.04;97141.92;109479;1276;22451;-63
2022/01/03 04:55:01;;;;;;;9.50;6.80;;;;;;;8.58;71.75;97142.97;109599;1275;22547;-63
2022/01/03 04:57:30;;;;;;;9.10;7.10;;;;;;;8.57;71.88;97126.95;109497;1276;22452;-63
2022/01/03 04:59:58;;;;;;;9.30;7.80;;;;;;;8.59;72.21;97128.27;109485;1276;22465;-63
2022/01/03 05:02:26;;;;;;;12.90;8.00;;;;;;;8.59;71.87;97128.02;109601;1276;22468;-63
2022/01/03 05:04:55;;;;;;;11.30;8.00;;;;;;;8.60;71.86;97117.86;109597;1275;22455;-62
2022/01/03 05:07:23;;;;;;;11.80;7.80;;;;;;;8.60;71.77;97110.27;109466;1277;23402;-63
2022/01/03 05:09:51;;;;;;;11.50;7.90;;;;;;;8.60;72.08;97115.42;109469;1275;22600;-63
2022/01/03 05:12:19;;;;;;;9.40;7.00;;;;;;;8.59;71.88;97109.22;109581;1276;22516;-63
2022/01/03 05:14:48;;;;;;;13.10;7.30;;;;;;;8.58;72.32;97103.13;109566;1275;22642;-63
2022/01/03 05:17:16;;;;;;;8.50;6.80;;;;;;;8.56;71.75;97103.92;109498;1276;22445;-62
2022/01/03 05:19:44;;;;;;;10.60;7.60;;;;;;;8.56;72.25;97101.93;109535;1275;22476;-63
2022/01/03 05:22:13;;;;;;;10.50;7.30;;;;;;;8.56;72.61;97105.46;109568;1276;23132;-64
2022/01/03 05:24:43;;;;;;;11.80;8.40;;;;;;;8.55;72.05;97105.94;109477;1277;22424;-64
2022/01/03 05:27:12;;;;;;;10.30;8.80;;;;;;;8.52;72.25;97108.89;109508;1276;22539;-61
2022/01/03 05:29:40;;;;;;;9.90;7.50;;;;;;;8.48;72.48;97105.02;109478;1276;22618;-62
2022/01/03 05:32:09;;;;;;;11.00;7.80;;;;;;;8.42;73.22;97107.41;109572;1276;22405;-63
2022/01/03 05:34:37;;;;;;;7.80;5.60;;;;;;;8.36;73.21;97103.94;109582;1276;23007;-63
2022/01/03 05:37:05;;;;;;;7.50;6.40;;;;;;;8.34;73.56;97107.45;109468;1277;23251;-63
2022/01/03 05:39:34;;;;;;;9.80;6.80;;;;;;;8.29;73.81;97113.91;109475;1276;22578;-63
2022/01/03 05:42:02;;;;;;;9.40;7.10;;;;;;;8.20;74.44;97101.17;109464;1277;22534;-63
2022/01/03 05:44:32;;;;;;;9.70;6.50;;;;;;;8.11;75.01;97095.20;109481;1276;22257;-64
2022/01/03 05:47:01;;;;;;;8.40;6.90;;;;;;;8.03;75.07;97091.61;109460;1276;22539;-64
2022/01/03 05:49:30;;;;;;;11.80;7.40;;;;;;;7.97;74.92;97085.30;109419;1277;23146;-63
2022/01/03 05:51:58;;;;;;;9.00;7.10;;;;;;;7.93;75.87;97085.05;109589;1275;22426;-64
2022/01/03 05:54:27;;;;;;;9.00;7.30;;;;;;;7.89;75.85;97082.14;109457;1277;22229;-64
2022/01/03 05:56:55;;;;;;;11.60;6.60;;;;;;;7.85;75.21;97075.73;109479;1277;22328;-63
2022/01/03 05:59:23;;;;;;;12.40;8.30;;;;;;;7.84;75.28;97073.67;109450;1277;22574;-62
2022/01/03 06:01:53;;;;;;;12.50;8.50;;;;;;;7.85;75.74;97069.84;109561;1276;23213;-64
2022/01/03 06:04:24;;;;;;;14.20;8.50;;;;;;;7.87;75.26;97076.82;109574;1276;23363;-64
2022/01/03 06:07:00;;;;;;;15.30;8.60;;;;;;;7.89;76.12;97080.91;109580;1275;22544;-63
2022/01/03 06:09:32;;;;;;;15.00;10.00;;;;;;;7.89;76.38;97086.74;109478;1277;22578;-64
2022/01/03 06:12:01;;;;;;;17.50;10.00;;;;;;;7.88;76.69;97090.98;109477;1277;22452;-64
2022/01/03 06:14:32;;;;;;;13.80;8.80;;;;;;;7.85;76.69;97091.19;109572;1276;22596;-62
2022/01/03 06:17:01;;;;;;;9.90;8.40;;;;;;;7.83;77.42;97096.50;109572;1276;22552;-63
2022/01/03 06:19:29;;;;;;;11.60;8.50;;;;;;;7.82;77.57;97086.48;109485;1277;22579;-64
2022/01/03 06:21:58;;;;;;;12.20;8.50;;;;;;;7.82;77.49;97085.89;109510;1277;23197;-63
2022/01/03 06:24:26;;;;;;;10.60;8.60;;;;;;;7.80;77.57;97088.20;109504;1276;22442;-61
2022/01/03 06:26:59;;;;;;;12.00;9.10;;;;;;;7.76;77.52;97087.03;109584;1275;23651;-64
2022/01/03 06:29:27;;;;;;;12.00;8.40;;;;;;;7.77;77.46;97090.17;109491;1276;22661;-63
2022/01/03 06:31:55;;;;;;;10.60;7.40;;;;;;;7.78;77.70;97093.33;109558;1275;22448;-63
2022/01/03 06:34:24;;;;;;;13.90;9.10;;;;;;;7.78;77.89;97103.08;109497;1276;23257;-63
2022/01/03 06:36:53;;;;;;;16.40;10.20;;;;;;;7.74;78.82;97113.28;109561;1276;22427;-62
2022/01/03 06:39:21;;;;;;;14.30;9.40;;;;;;;7.71;79.04;97108.36;109543;1277;22558;-63
2022/01/03 06:41:50;;;;;;;13.20;9.20;;;;;;;7.70;79.36;97110.21;109552;1276;23105;-63
2022/01/03 06:44:18;;;;;;;12.40;8.40;;;;;;;7.69;79.39;97114.38;109484;1276;22477;-64
2022/01/03 06:46:47;;;;;;;10.50;8.20;;;;;;;7.67;79.19;97121.75;109489;1276;22830;-63
2022/01/03 06:49:16;;;;;;;11.40;8.30;;;;;;;7.63;79.72;97122.25;109572;1275;23146;-63
2022/01/03 06:51:45;;;;;;;15.10;9.20;;;;;;;7.61;79.68;97113.39;109480;1276;22539;-63
2022/01/03 06:54:15;;;;;;;12.20;9.80;;;;;;;7.61;79.91;97103.58;109488;1276;22364;-64
2022/01/03 06:56:48;;;;;;;10.50;7.90;;;;;;;7.61;79.93;97104.38;109504;1276;23263;-62
2022/01/03 06:59:17;;;;;;;9.80;8.40;;;;;;;7.61;79.96;97101.29;109565;1275;22603;-63
2022/01/03 07:01:46;;;;;;;22.20;19.90;;;;;;;7.59;79.85;97101.41;109371;1276;137434;-62
2022/01/03 07:04:15;;;;;;;24.00;21.10;;;;;;;7.58;79.93;97100.67;109557;1275;22414;-63
2022/01/03 07:06:43;;;;;;;16.60;13.50;;;;;;;7.59;79.92;97099.05;109622;1274;22528;-63
2022/01/03 07:09:12;;;;;;;18.00;13.10;;;;;;;7.61;80.03;97095.42;109586;1275;23310;-62
2022/01/03 07:11:41;;;;;;;17.80;10.40;;;;;;;7.63;80.22;97102.16;109643;1274;22382;-63
2022/01/03 07:19:36;;;;;;;14.00;7.30;;;;;;;7.62;80.28;97110.70;109671;1273;23741;-62
2022/01/03 07:22:07;;;;;;;14.50;7.80;;;;;;;7.64;80.02;97126.74;109659;1274;22466;-61
2022/01/03 07:24:37;;;;;;;14.10;9.00;;;;;;;7.64;80.62;97128.67;109640;1272;22472;-62
2022/01/03 07:27:07;;;;;;;14.00;9.30;;;;;;;7.64;80.58;97127.94;109646;1274;22428;-62
2022/01/03 07:29:36;;;;;;;12.90;9.00;;;;;;;7.62;80.92;97126.94;109667;1274;22428;-62
2022/01/03 07:32:05;;;;;;;15.50;9.60;;;;;;;7.62;80.90;97134.39;109655;1273;23178;-61
2022/01/03 07:34:33;;;;;;;13.90;9.90;;;;;;;7.65;80.98;97133.59;109548;1274;138501;-61
2022/01/03 07:37:02;;;;;;;16.80;11.60;;;;;;;7.67;80.76;97134.57;109646;1274;22438;-62
2022/01/03 07:39:31;;;;;;;11.30;8.30;;;;;;;7.68;80.69;97131.02;109675;1274;23221;-62
2022/01/03 07:41:59;;;;;;;13.10;9.10;;;;;;;7.70;80.79;97131.34;109666;1274;22467;-62
2022/01/03 07:44:29;;;;;;;12.50;8.90;;;;;;;7.72;80.52;97147.44;109571;1275;22467;-62
2022/01/03 07:46:57;;;;;;;15.50;11.70;;;;;;;7.78;80.35;97152.02;109674;1274;22473;-62
2022/01/03 07:49:26;;;;;;;15.40;8.70;;;;;;;7.81;80.53;97149.36;109647;1273;22483;-62
2022/01/03 07:51:54;;;;;;;16.20;8.40;;;;;;;7.83;80.38;97156.61;109661;1274;22454;-62
2022/01/03 07:54:22;;;;;;;14.90;8.20;;;;;;;7.87;80.30;97155.95;109571;1274;23186;-62
2022/01/03 07:56:50;;;;;;;14.80;9.30;;;;;;;7.90;80.10;97168.30;109666;1274;22438;-63
2022/01/03 07:59:18;;;;;;;11.50;8.70;;;;;;;7.95;79.97;97173.97;109657;1274;22496;-63
2022/01/03 08:01:47;;;;;;;14.40;11.30;;;;;;;7.97;79.98;97166.20;109653;1274;22450;-63
2022/01/03 08:04:15;;;;;;;14.20;11.80;;;;;;;7.99;79.47;97176.63;109656;1274;22401;-62
2022/01/03 08:06:46;;;;;;;13.40;8.30;;;;;;;8.01;79.63;97183.41;109650;1274;22407;-63
2022/01/03 08:09:14;;;;;;;11.80;8.00;;;;;;;8.05;79.45;97189.60;109638;1274;23096;-64
2022/01/03 08:11:42;;;;;;;10.90;7.90;;;;;;;8.08;79.18;97182.55;109665;1274;22496;-63
2022/01/03 08:14:10;;;;;;;11.80;8.70;;;;;;;8.09;79.30;97186.79;109588;1276;22508;-62
2022/01/03 08:16:39;;;;;;;16.00;9.20;;;;;;;8.09;79.20;97178.42;109643;1274;22480;-63
2022/01/03 08:19:07;;;;;;;17.10;11.70;;;;;;;8.13;79.11;97183.80;109661;1274;22491;-62
2022/01/03 08:21:35;;;;;;;12.20;7.90;;;;;;;8.16;78.83;97178.75;109525;1274;138176;-62
2022/01/03 08:24:03;;;;;;;11.90;7.70;;;;;;;8.18;79.06;97172.92;109640;1274;22256;-63
2022/01/03 08:26:34;;;;;;;11.30;9.00;;;;;;;8.18;79.16;97180.31;109449;1275;23235;-63
2022/01/03 08:29:02;;;;;;;11.20;8.50;;;;;;;8.18;79.07;97183.59;109518;1274;22496;-66
2022/01/03 08:31:31;;;;;;;10.00;6.90;;;;;;;8.19;78.55;97180.94;109650;1274;22620;-63
2022/01/03 08:33:59;;;;;;;13.30;8.90;;;;;;;8.22;78.30;97187.07;109639;1274;22421;-62
2022/01/03 08:36:27;;;;;;;12.30;7.30;;;;;;;8.22;78.41;97197.52;109539;1275;22445;-63
2022/01/03 08:38:55;;;;;;;11.10;8.10;;;;;;;8.20;78.25;97198.16;109642;1274;22558;-62
2022/01/03 08:41:23;;;;;;;12.40;7.70;;;;;;;8.19;77.84;97193.23;109619;1272;22546;-62
2022/01/03 08:43:52;;;;;;;12.20;7.70;;;;;;;8.22;78.09;97192.59;109620;1274;22619;-62
2022/01/03 08:46:23;;;;;;;12.10;8.00;;;;;;;8.24;77.99;97200.86;109566;1274;22451;-62
2022/01/03 08:48:53;;;;;;;10.80;7.90;;;;;;;8.24;77.32;97201.73;109646;1274;23148;-62
2022/01/03 08:51:22;;;;;;;9.50;7.90;;;;;;;8.21;77.28;97198.71;109623;1274;22607;-62
2022/01/03 08:53:50;;;;;;;9.70;7.40;;;;;;;8.23;77.32;97214.64;109624;1274;22682;-62
2022/01/03 08:56:19;;;;;;;10.80;8.30;;;;;;;8.24;77.06;97218.79;109655;1274;23289;-63
2022/01/03 08:58:47;;;;;;;11.20;8.10;;;;;;;8.26;77.12;97216.23;109628;1274;22547;-63
2022/01/03 09:01:15;;;;;;;13.50;9.70;;;;;;;8.28;77.60;97224.23;109636;1274;22525;-62
2022/01/03 09:03:44;;;;;;;9.80;7.70;;;;;;;8.30;77.60;97219.16;109645;1274;23081;-63
2022/01/03 09:06:12;;;;;;;10.80;8.00;;;;;;;8.33;77.54;97215.92;109651;1274;22400;-63
2022/01/03 09:08:40;;;;;;;12.20;8.80;;;;;;;8.36;77.05;97219.45;109656;1274;23134;-63
2022/01/03 09:11:09;;;;;;;11.30;8.10;;;;;;;8.37;76.96;97213.27;109557;1275;22496;-62
2022/01/03 09:13:37;;;;;;;10.10;8.40;;;;;;;8.37;77.44;97216.31;109619;1274;22425;-63
2022/01/03 09:16:07;;;;;;;12.20;8.70;;;;;;;8.36;77.10;97215.48;109571;1276;22515;-63
2022/01/03 09:18:37;;;;;;;11.70;8.50;;;;;;;8.37;76.93;97207.93;109635;1274;22476;-63
2022/01/03 09:21:06;;;;;;;13.10;8.00;;;;;;;8.40;76.55;97203.60;109637;1273;22495;-63
2022/01/03 09:23:39;;;;;;;10.70;8.10;;;;;;;8.42;76.64;97207.55;109602;1274;22444;-63
2022/01/03 09:28:57;;;;;;;11.50;7.80;;;;;;;8.42;76.14;97199.55;109585;1275;22574;-63
2022/01/03 09:31:27;;;;;;;12.60;7.50;;;;;;;8.45;76.23;97200.34;109631;1274;22425;-63
2022/01/03 09:33:58;;;;;;;14.70;7.10;;;;;;;8.51;76.03;97196.89;109578;1275;22454;-63
2022/01/03 09:36:28;;;;;;;11.60;7.40;;;;;;;8.55;75.61;97196.04;109591;1275;23149;-63
2022/01/03 09:38:57;;;;;;;11.80;8.20;;;;;;;8.57;75.33;97198.42;109635;1274;22480;-62
2022/01/03 09:41:27;;;;;;;10.50;7.00;;;;;;;8.57;75.42;97206.58;109615;1274;23200;-63
2022/01/03 09:44:09;;;;;;;11.20;8.70;;;;;;;8.57;75.27;97187.23;109617;1274;22491;-62
2022/01/03 09:46:42;;;;;;;12.70;8.20;;;;;;;8.57;75.50;97183.73;109623;1274;22379;-62
2022/01/03 09:49:12;;;;;;;13.20;9.40;;;;;;;8.58;75.85;97184.79;109633;1273;22501;-62
2022/01/03 09:51:43;;;;;;;12.00;8.20;;;;;;;8.59;76.13;97179.46;109638;1274;22261;-62
2022/01/03 09:54:15;;;;;;;11.50;8.10;;;;;;;8.62;75.78;97185.95;109642;1274;22463;-62
2022/01/03 09:56:44;;;;;;;9.80;7.10;;;;;;;8.68;74.88;97188.85;109630;1274;22508;-63
2022/01/03 09:59:25;;;;;;;10.80;7.30;;;;;;;8.72;74.06;97182.50;109631;1274;22451;-63
2022/01/03 10:02:27;;;;;;;9.50;6.60;;;;;;;8.77;74.32;97184.69;109460;1275;22474;-63
2022/01/03 10:05:01;;;;;;;9.00;5.80;;;;;;;8.78;74.16;97185.10;109585;1275;22409;-63
2022/01/03 10:07:29;;;;;;;11.20;8.50;;;;;;;8.77;74.32;97190.45;109471;1275;22231;-63
2022/01/03 10:10:03;;;;;;;9.40;6.70;;;;;;;8.79;74.06;97186.75;109564;1275;22459;-63
2022/01/03 10:12:37;;;;;;;12.30;8.90;;;;;;;8.82;74.42;97183.82;109575;1275;22474;-64
2022/01/03 10:15:09;;;;;;;11.40;7.00;;;;;;;8.86;74.61;97185.61;109565;1275;22439;-63
2022/01/03 10:17:45;;;;;;;11.00;7.20;;;;;;;8.86;74.45;97190.52;109593;1276;22879;-62
2022/01/03 10:20:17;;;;;;;10.60;7.20;;;;;;;8.85;74.55;97181.46;109603;1275;22554;-63
2022/01/03 10:22:51;;;;;;;12.00;8.70;;;;;;;8.80;74.65;97188.92;109593;1275;23220;-63
2022/01/03 10:25:26;;;;;;;12.90;10.50;;;;;;;8.76;74.68;97186.44;109579;1275;22457;-63
2022/01/03 10:28:01;;;;;;;14.50;10.30;;;;;;;8.70;75.02;97185.45;109587;1275;22471;-64
2022/01/03 10:30:47;;;;;;;15.70;10.50;;;;;;;8.67;75.17;97186.66;109489;1275;22609;-64
2022/01/03 10:33:35;;;;;;;13.00;10.30;;;;;;;8.65;75.38;97186.86;109600;1276;22453;-64
2022/01/03 10:36:37;;;;;;;13.80;10.90;;;;;;;8.64;75.63;97188.27;109561;1274;22432;-62
2022/01/03 10:39:17;;;;;;;17.20;12.40;;;;;;;8.63;75.62;97183.17;109502;1274;22469;-61
2022/01/03 10:41:49;;;;;;;21.80;15.90;;;;;;;8.65;75.47;97169.17;109553;1274;23224;-61
2022/01/03 10:44:37;;;;;;;15.10;11.80;;;;;;;8.73;75.63;97171.95;109594;1275;23220;-62
2022/01/03 10:47:10;;;;;;;11.90;8.40;;;;;;;8.81;74.71;97158.83;109578;1275;22573;-63
2022/01/03 10:49:41;;;;;;;10.50;7.90;;;;;;;8.83;74.46;97164.64;109586;1275;23156;-62
2022/01/03 10:52:20;;;;;;;10.50;8.40;;;;;;;8.84;74.32;97155.26;109488;1276;137336;-61
2022/01/03 10:55:16;;;;;;;10.20;7.60;;;;;;;8.86;74.25;97161.55;109587;1275;23462;-62
2022/01/03 10:58:00;;;;;;;8.70;6.60;;;;;;;8.85;74.05;97164.41;109577;1275;22465;-62
2022/01/03 11:00:31;;;;;;;9.70;8.00;;;;;;;8.80;73.51;97170.93;109566;1275;22388;-63
2022/01/03 11:03:32;;;;;;;10.20;8.10;;;;;;;8.75;73.84;97177.89;109569;1275;23333;-63
2022/01/03 11:06:13;;;;;;;11.00;7.70;;;;;;;8.72;74.14;97167.95;109591;1275;22567;-62
2022/01/03 11:11:47;;;;;;;33.40;20.70;;;;;;;8.70;73.58;97174.23;109587;1275;23175;-62
2022/01/03 11:14:41;;;;;;;10.50;8.30;;;;;;;8.70;73.23;97146.94;109546;1275;22530;-62
2022/01/03 11:17:42;;;;;;;12.10;8.50;;;;;;;8.68;73.42;97143.77;109598;1275;22462;-63
2022/01/03 11:20:20;;;;;;;10.60;7.50;;;;;;;8.70;71.96;97159.98;109137;1278;22580;-62
2022/01/03 11:22:49;;;;;;;9.50;7.90;;;;;;;8.74;72.47;97151.80;109099;1280;22475;-62
2022/01/03 11:25:29;;;;;;;11.10;8.90;;;;;;;8.77;72.71;97152.04;109118;1278;22449;-62
2022/01/03 11:27:59;;;;;;;9.50;7.10;;;;;;;8.88;72.44;97148.92;109142;1280;22469;-62
2022/01/03 11:30:28;;;;;;;13.80;7.30;;;;;;;8.99;71.78;97149.13;109115;1278;23181;-63
2022/01/03 11:32:57;;;;;;;9.80;6.60;;;;;;;9.06;71.97;97143.01;109116;1280;22602;-62
2022/01/03 11:35:32;;;;;;;9.90;7.10;;;;;;;9.15;71.41;97148.98;109105;1279;22589;-62
2022/01/03 11:38:01;;;;;;;12.10;7.90;;;;;;;9.25;71.08;97146.61;109115;1280;22484;-62
2022/01/03 11:40:29;;;;;;;10.60;5.90;;;;;;;9.45;69.64;97160.92;108975;1280;22480;-62
2022/01/03 11:42:59;;;;;;;6.80;5.00;;;;;;;9.66;67.07;97135.65;109096;1279;22464;-62
2022/01/03 11:45:27;;;;;;;9.20;5.40;;;;;;;9.80;66.34;97144.14;109104;1280;23293;-63
2022/01/03 11:47:56;;;;;;;8.30;5.10;;;;;;;9.96;66.19;97149.16;109095;1280;22463;-63
2022/01/03 11:50:25;;;;;;;8.20;5.50;;;;;;;10.12;65.53;97142.36;109093;1279;22559;-62
2022/01/03 11:52:54;;;;;;;8.10;4.50;;;;;;;10.21;64.06;97141.24;109101;1278;22544;-62
2022/01/03 11:55:24;;;;;;;7.10;4.00;;;;;;;10.28;61.05;97165.50;108917;1277;137579;-63
2022/01/03 12:03:41;;;;;;;9.30;4.10;;;;;;;9.99;61.23;97144.33;109590;1275;23578;-63